Greenup, Illinois
Current Conditions -  °F | °C
As of 9:53 AM on Monday 22 Dec 2014 (Local Time) from KMTO Reporting Station
Light Rain Light Rain  
Wind Chill: 29°   Ceiling: 700
Heat Index: 37°   Visibility: 4mi
Dew Point: 34°   Wind: 13mph
Humidity: 89%   Direction: 130°SE
Pressure: 29.82"   Gusts: NA
Location:  39.25°N, 88.16°W
Report Text: KMTO 221553Z AUTO 13011KT 4SM -RA BR BKN007 OVC014 03/01 A2982 RMK AO2 RAE35B46 SLP104 P0000 T00280011
Loading
Personal Weather Stations






























Interactive Weather Map New forecast layout! Learn more

10-Day Weather Forecast

Advertisements
Track Severe Weather on mobile